createdAt,value
2023-04-21T00:01:26.261Z,7.17
2023-04-21T00:03:53.038Z,7.13
2023-04-21T00:06:23.055Z,6.89
2023-04-21T00:08:50.370Z,7.05
2023-04-21T00:11:17.293Z,6.93
2023-04-21T00:13:44.253Z,7.04
2023-04-21T00:16:11.165Z,7.03
2023-04-21T00:18:37.912Z,7.01
2023-04-21T00:21:04.900Z,6.97
2023-04-21T00:23:31.607Z,6.84
2023-04-21T00:25:58.251Z,6.98
2023-04-21T00:28:25.018Z,6.99
2023-04-21T00:30:51.768Z,6.89
2023-04-21T00:33:18.360Z,6.91
2023-04-21T00:35:45.048Z,6.83
2023-04-21T00:38:11.669Z,6.85
2023-04-21T00:40:38.284Z,6.97
2023-04-21T00:43:08.342Z,6.86
2023-04-21T00:45:35.176Z,6.79
2023-04-21T00:48:02.016Z,6.92
2023-04-21T00:50:28.805Z,6.94
2023-04-21T00:52:56.275Z,6.85
2023-04-21T00:55:23.346Z,6.89
2023-04-21T00:57:51.645Z,6.80
2023-04-21T01:00:18.495Z,6.85
2023-04-21T01:02:45.802Z,6.64
2023-04-21T01:05:12.929Z,6.82
2023-04-21T01:07:39.922Z,6.74
2023-04-21T01:10:07.378Z,6.81
2023-04-21T01:12:35.748Z,6.77
2023-04-21T01:15:02.416Z,6.67
2023-04-21T01:17:30.349Z,6.72
2023-04-21T01:19:57.710Z,6.79
2023-04-21T01:22:24.616Z,6.76
2023-04-21T01:24:51.921Z,6.59
2023-04-21T01:27:20.433Z,6.74
2023-04-21T01:29:49.817Z,6.75
2023-04-21T01:32:19.398Z,6.70
2023-04-21T01:34:47.150Z,6.69
2023-04-21T01:37:17.124Z,6.66
2023-04-21T01:39:47.115Z,6.70
2023-04-21T01:42:14.125Z,6.74
2023-04-21T01:44:40.842Z,6.72
2023-04-21T01:47:08.936Z,6.73
2023-04-21T01:49:35.584Z,6.67
2023-04-21T01:52:02.329Z,6.65
2023-04-21T01:54:29.055Z,6.74
2023-04-21T01:56:56.420Z,6.63
2023-04-21T01:59:23.234Z,6.70
2023-04-21T02:01:50.387Z,6.75
2023-04-21T02:04:17.313Z,6.61
2023-04-21T02:06:44.104Z,6.67
2023-04-21T02:09:10.760Z,6.64
2023-04-21T02:11:37.524Z,6.47
2023-04-21T02:14:04.210Z,6.63
2023-04-21T02:16:30.909Z,6.61
2023-04-21T02:18:57.711Z,6.61
2023-04-21T02:21:25.022Z,6.61
2023-04-21T02:23:52.225Z,6.64
2023-04-21T02:26:19.773Z,6.57
2023-04-21T02:28:46.774Z,6.58
2023-04-21T02:31:13.978Z,6.63
2023-04-21T02:33:41.040Z,6.51
2023-04-21T02:36:07.894Z,6.54
2023-04-21T02:38:34.972Z,6.54
2023-04-21T02:41:01.572Z,6.70
2023-04-21T02:43:28.314Z,6.70
2023-04-21T02:45:54.980Z,6.67
2023-04-21T02:48:23.230Z,6.66
2023-04-21T02:50:50.891Z,6.72
2023-04-21T02:53:17.601Z,6.59
2023-04-21T02:55:44.364Z,6.60
2023-04-21T02:58:11.177Z,6.46
2023-04-21T03:00:38.027Z,6.47
2023-04-21T03:03:04.769Z,6.50
2023-04-21T03:05:31.497Z,6.43
2023-04-21T03:07:58.178Z,6.42
2023-04-21T03:10:24.888Z,6.51
2023-04-21T03:12:51.491Z,6.57
2023-04-21T03:15:19.643Z,6.69
2023-04-21T03:17:46.449Z,6.65
2023-04-21T03:20:13.290Z,6.60
2023-04-21T03:22:40.216Z,6.70
2023-04-21T03:25:07.708Z,6.68
2023-04-21T03:27:35.170Z,6.73
2023-04-21T03:30:01.890Z,6.82
2023-04-21T03:32:28.796Z,6.90
2023-04-21T03:34:55.522Z,6.63
2023-04-21T03:37:22.170Z,6.83
2023-04-21T03:39:48.891Z,6.67
2023-04-21T03:42:15.568Z,6.82
2023-04-21T03:44:42.511Z,6.70
2023-04-21T03:47:09.211Z,6.84
2023-04-21T03:49:35.995Z,6.68
2023-04-21T03:52:03.208Z,6.83
2023-04-21T03:54:30.036Z,6.84
2023-04-21T03:56:56.750Z,6.88
2023-04-21T03:59:23.408Z,7.08
2023-04-21T04:01:50.244Z,7.08
2023-04-21T04:04:17.267Z,7.07
2023-04-21T04:06:44.093Z,7.02
2023-04-21T04:09:10.836Z,7.09
2023-04-21T04:11:37.506Z,6.94
2023-04-21T04:14:04.176Z,7.17
2023-04-21T04:16:31.188Z,7.17
2023-04-21T04:18:57.946Z,7.17
2023-04-21T04:21:24.749Z,7.33
2023-04-21T04:23:52.501Z,7.38
2023-04-21T04:26:19.377Z,7.56
2023-04-21T04:28:46.328Z,7.68
2023-04-21T04:31:13.865Z,7.69
2023-04-21T04:33:46.735Z,7.74
2023-04-21T04:36:13.431Z,7.85
2023-04-21T04:38:43.265Z,7.85
2023-04-21T04:41:09.931Z,8.03
2023-04-21T04:43:37.055Z,7.93
2023-04-21T04:46:03.780Z,8.02
2023-04-21T04:48:30.543Z,8.28
2023-04-21T04:50:57.335Z,8.68
2023-04-21T04:53:24.030Z,9.00
2023-04-21T04:55:50.830Z,8.95
2023-04-21T04:58:17.642Z,9.43
2023-04-21T05:00:49.500Z,9.65
2023-04-21T05:03:17.733Z,9.95
2023-04-21T05:05:46.211Z,10.31
2023-04-21T05:08:13.282Z,9.96
2023-04-21T05:10:40.928Z,9.99
2023-04-21T05:13:07.520Z,9.58
2023-04-21T05:15:34.231Z,9.52
2023-04-21T05:18:00.913Z,9.26
2023-04-21T05:20:27.624Z,9.43
2023-04-21T05:22:54.924Z,8.99
2023-04-21T05:25:21.532Z,9.01
2023-04-21T05:27:48.478Z,8.84
2023-04-21T05:30:15.215Z,9.05
2023-04-21T05:32:42.136Z,9.14
2023-04-21T05:35:09.010Z,8.78
2023-04-21T05:37:35.710Z,9.04
2023-04-21T05:40:02.404Z,9.32
2023-04-21T05:42:29.120Z,9.34
2023-04-21T05:44:55.893Z,9.47
2023-04-21T05:47:22.648Z,9.35
2023-04-21T05:49:53.646Z,9.73
2023-04-21T05:52:21.900Z,9.65
2023-04-21T05:54:48.556Z,9.71
2023-04-21T05:57:16.834Z,9.40
2023-04-21T05:59:43.938Z,9.57
2023-04-21T06:02:11.690Z,9.71
2023-04-21T06:04:38.925Z,10.06
2023-04-21T06:07:09.967Z,10.16
2023-04-21T06:09:37.015Z,10.33
2023-04-21T06:12:03.971Z,10.22
2023-04-21T06:14:30.694Z,10.40
2023-04-21T06:16:57.292Z,10.55
2023-04-21T06:19:24.148Z,10.61
2023-04-21T06:21:50.875Z,10.70
2023-04-21T06:24:24.563Z,10.81
2023-04-21T06:26:52.750Z,10.61
2023-04-21T06:29:20.199Z,11.08
2023-04-21T06:31:47.522Z,11.12
2023-04-21T06:34:14.280Z,10.86
2023-04-21T06:36:40.950Z,10.41
2023-04-21T06:39:07.672Z,10.68
2023-04-21T06:41:34.334Z,10.45
2023-04-21T06:44:00.960Z,10.33
2023-04-21T06:46:27.695Z,10.85
2023-04-21T06:48:54.350Z,10.87
2023-04-21T06:51:21.008Z,10.65
2023-04-21T06:53:47.682Z,10.49
2023-04-21T06:56:14.310Z,10.58
2023-04-21T06:58:40.903Z,10.52
2023-04-21T07:01:07.683Z,10.61
2023-04-21T07:03:34.529Z,10.57
2023-04-21T07:06:01.380Z,10.42
2023-04-21T07:08:28.187Z,10.61
2023-04-21T07:10:54.875Z,10.74
2023-04-21T07:13:21.591Z,10.81
2023-04-21T07:15:48.299Z,10.98
2023-04-21T07:18:15.138Z,11.13
2023-04-21T07:20:41.893Z,11.27
2023-04-21T07:23:08.781Z,10.82
2023-04-21T07:25:35.676Z,11.24
2023-04-21T07:28:03.418Z,10.77
2023-04-21T07:30:30.725Z,11.04
2023-04-21T07:32:57.854Z,10.98
2023-04-21T07:35:25.024Z,10.74
2023-04-21T07:37:51.732Z,10.82
2023-04-21T07:40:18.615Z,10.70
2023-04-21T07:42:45.348Z,10.70
2023-04-21T07:45:12.472Z,10.78
2023-04-21T07:47:39.308Z,10.82
2023-04-21T07:50:07.013Z,10.74
2023-04-21T07:52:34.182Z,11.16
2023-04-21T07:55:00.952Z,10.70
2023-04-21T07:57:27.621Z,10.81
2023-04-21T07:59:54.342Z,10.93
2023-04-21T08:02:21.051Z,11.05
2023-04-21T08:04:47.925Z,11.21
2023-04-21T08:07:15.893Z,11.44
2023-04-21T08:09:42.759Z,11.30
2023-04-21T08:12:09.415Z,11.44
2023-04-21T08:14:36.241Z,11.76
2023-04-21T08:17:03.410Z,11.55
2023-04-21T08:19:30.092Z,11.76
2023-04-21T08:21:57.618Z,11.44
2023-04-21T08:24:24.726Z,11.64
2023-04-21T08:26:51.595Z,11.42
2023-04-21T08:29:18.641Z,11.51
2023-04-21T08:31:45.381Z,11.38
2023-04-21T08:34:12.042Z,11.90
2023-04-21T08:36:38.737Z,12.29
2023-04-21T08:39:05.554Z,12.00
2023-04-21T08:41:32.471Z,11.60
2023-04-21T08:43:59.203Z,11.71
2023-04-21T08:46:27.413Z,12.02
2023-04-21T08:48:55.337Z,12.01
2023-04-21T08:51:24.376Z,12.26
2023-04-21T08:53:52.215Z,12.54
2023-04-21T08:56:19.146Z,12.35
2023-04-21T08:58:45.845Z,12.44
2023-04-21T09:01:12.719Z,12.25
2023-04-21T09:03:39.627Z,12.38
2023-04-21T09:06:09.289Z,11.68
2023-04-21T09:08:43.200Z,12.07
2023-04-21T09:11:14.225Z,11.43
2023-04-21T09:13:42.857Z,11.83
2023-04-21T09:16:18.415Z,11.52
2023-04-21T09:18:45.392Z,11.53
2023-04-21T09:21:17.017Z,11.75
2023-04-21T09:23:51.212Z,12.12
2023-04-21T09:26:19.883Z,12.02
2023-04-21T09:28:48.060Z,11.83
2023-04-21T09:31:24.726Z,11.69
2023-04-21T09:33:59.386Z,11.62
2023-04-21T09:36:28.892Z,11.97
2023-04-21T09:41:27.298Z,11.77
2023-04-21T09:43:54.190Z,11.41
2023-04-21T09:46:24.249Z,11.18
2023-04-21T09:48:52.743Z,11.34
2023-04-21T09:51:28.701Z,11.28
2023-04-21T09:54:28.899Z,11.45
2023-04-21T09:56:59.751Z,11.57
2023-04-21T09:59:30.898Z,11.45
2023-04-21T10:01:58.745Z,11.58
2023-04-21T10:04:26.637Z,11.33
2023-04-21T10:06:53.778Z,11.32
2023-04-21T10:09:23.167Z,11.36
2023-04-21T10:11:49.860Z,11.53
2023-04-21T10:14:16.577Z,11.43
2023-04-21T10:16:43.759Z,11.23
2023-04-21T10:19:25.643Z,11.46
2023-04-21T10:21:52.567Z,11.03
2023-04-21T10:24:19.598Z,11.09
2023-04-21T10:26:46.694Z,11.10
2023-04-21T10:29:14.436Z,11.30
2023-04-21T10:31:52.743Z,11.30
2023-04-21T10:34:25.457Z,11.23
2023-04-21T10:36:55.295Z,11.06
2023-04-21T10:39:44.247Z,11.18
2023-04-21T10:42:14.038Z,11.05
2023-04-21T10:44:52.081Z,10.77
2023-04-21T10:47:37.290Z,10.69
2023-04-21T10:50:14.503Z,10.85
2023-04-21T10:52:44.914Z,10.97
2023-04-21T10:55:13.471Z,10.92
2023-04-21T10:57:42.414Z,11.71
2023-04-21T11:00:10.266Z,10.95
2023-04-21T11:02:39.794Z,11.68
2023-04-21T11:05:09.890Z,11.46
2023-04-21T11:07:36.904Z,11.28
2023-04-21T11:10:06.514Z,11.47
2023-04-21T11:12:37.582Z,11.20
2023-04-21T11:15:09.296Z,11.14
2023-04-21T11:17:38.406Z,11.10
2023-04-21T11:20:06.860Z,11.33
2023-04-21T11:22:34.296Z,11.22
2023-04-21T11:25:01.314Z,11.20
2023-04-21T11:27:29.136Z,11.19
2023-04-21T11:29:56.024Z,11.63
2023-04-21T11:32:22.731Z,11.61
2023-04-21T11:34:49.865Z,11.90
2023-04-21T11:37:23.928Z,11.77
2023-04-21T11:39:50.710Z,11.32
2023-04-21T11:42:23.478Z,11.59
2023-04-21T11:44:50.195Z,11.98
2023-04-21T11:47:18.544Z,11.83
2023-04-21T11:49:54.626Z,11.86
2023-04-21T11:52:26.397Z,12.01
2023-04-21T11:55:02.040Z,12.66
2023-04-21T11:57:30.072Z,12.69
2023-04-21T12:00:01.233Z,12.07
2023-04-21T12:02:30.347Z,11.93
2023-04-21T12:05:05.207Z,12.50
2023-04-21T12:07:33.009Z,12.71
2023-04-21T12:10:01.236Z,12.87
2023-04-21T12:12:28.090Z,12.55
2023-04-21T12:14:55.078Z,12.62
2023-04-21T12:17:22.218Z,12.48
2023-04-21T12:19:48.951Z,12.24
2023-04-21T12:22:18.947Z,12.15
2023-04-21T12:24:46.009Z,12.64
2023-04-21T12:27:13.468Z,12.90
2023-04-21T12:29:41.231Z,13.26
2023-04-21T12:32:09.453Z,13.17
2023-04-21T12:34:36.389Z,12.80
2023-04-21T12:37:03.629Z,12.53
2023-04-21T12:39:32.825Z,12.19
2023-04-21T12:42:00.206Z,12.12
2023-04-21T12:44:27.105Z,12.23
2023-04-21T12:46:54.158Z,12.30
2023-04-21T12:49:21.488Z,12.28
2023-04-21T12:51:49.556Z,12.61
2023-04-21T12:54:16.564Z,12.13
2023-04-21T12:56:43.563Z,12.35
2023-04-21T12:59:11.416Z,12.30
2023-04-21T13:01:39.612Z,13.23
2023-04-21T13:04:07.670Z,13.26
2023-04-21T13:06:34.881Z,13.86
2023-04-21T13:09:01.956Z,14.54
2023-04-21T13:11:28.586Z,13.93
2023-04-21T13:13:55.290Z,13.47
2023-04-21T13:16:22.086Z,13.37
2023-04-21T13:18:48.945Z,13.11
2023-04-21T13:21:15.964Z,13.28
2023-04-21T13:23:42.737Z,13.56
2023-04-21T13:26:09.618Z,13.94
2023-04-21T13:28:38.590Z,14.06
2023-04-21T13:31:05.840Z,13.60
2023-04-21T13:33:35.134Z,13.56
2023-04-21T13:36:03.557Z,13.22
2023-04-21T13:38:31.006Z,13.23
2023-04-21T13:40:57.868Z,13.20
2023-04-21T13:43:25.086Z,13.45
2023-04-21T13:45:52.644Z,13.29
2023-04-21T13:48:21.253Z,13.19
2023-04-21T13:50:48.117Z,13.13
2023-04-21T13:53:16.601Z,13.20
2023-04-21T13:55:44.725Z,13.28
2023-04-21T13:58:12.670Z,13.23
2023-04-21T14:00:39.707Z,13.77
2023-04-21T14:03:07.048Z,14.09
2023-04-21T14:05:34.378Z,13.89
2023-04-21T14:08:01.497Z,13.99
2023-04-21T14:10:31.493Z,14.36
2023-04-21T14:12:58.225Z,14.34
2023-04-21T14:15:26.161Z,14.17
2023-04-21T14:17:56.781Z,14.14
2023-04-21T14:20:26.303Z,13.91
2023-04-21T14:22:53.047Z,13.80
2023-04-21T14:25:19.745Z,13.68
2023-04-21T14:27:46.532Z,13.32
2023-04-21T14:30:14.177Z,13.23
2023-04-21T14:32:45.580Z,13.07
2023-04-21T14:35:13.034Z,13.16
2023-04-21T14:37:40.762Z,13.20
2023-04-21T14:40:15.749Z,13.08
2023-04-21T14:42:42.804Z,13.08
2023-04-21T14:45:10.261Z,13.01
2023-04-21T14:47:37.751Z,13.12
2023-04-21T14:50:05.929Z,12.89
2023-04-21T14:52:33.348Z,12.89
2023-04-21T14:55:01.492Z,12.16
2023-04-21T14:57:28.305Z,12.61
2023-04-21T14:59:55.412Z,12.83
2023-04-21T15:02:23.288Z,13.07
2023-04-21T15:04:50.462Z,12.88
2023-04-21T15:07:22.850Z,12.84
2023-04-21T15:09:51.379Z,12.69
2023-04-21T15:12:18.225Z,12.68
2023-04-21T15:14:47.996Z,12.50
2023-04-21T15:17:15.161Z,12.67
2023-04-21T15:19:42.250Z,12.63
2023-04-21T15:22:19.516Z,12.69
2023-04-21T15:24:47.209Z,12.12
2023-04-21T15:27:40.275Z,12.53
2023-04-21T15:30:07.730Z,12.12
2023-04-21T15:32:34.515Z,12.28
2023-04-21T15:35:01.768Z,11.98
2023-04-21T15:37:28.548Z,12.11
2023-04-21T15:39:55.414Z,11.99
2023-04-21T15:42:22.271Z,11.94
2023-04-21T15:44:49.024Z,11.90
2023-04-21T15:47:17.063Z,11.86
2023-04-21T15:49:43.994Z,11.82
2023-04-21T15:52:11.337Z,11.59
2023-04-21T15:54:38.664Z,11.72
2023-04-21T15:57:06.103Z,11.72
2023-04-21T15:59:32.820Z,11.65
2023-04-21T16:02:00.352Z,11.66
2023-04-21T16:04:27.346Z,11.40
2023-04-21T16:06:54.261Z,11.65
2023-04-21T16:09:23.969Z,11.73
2023-04-21T16:11:50.613Z,11.62
2023-04-21T16:14:18.193Z,11.60
2023-04-21T16:16:45.396Z,11.58
2023-04-21T16:19:12.379Z,11.51
2023-04-21T16:21:40.171Z,11.49
2023-04-21T16:24:08.137Z,11.49
2023-04-21T16:26:36.424Z,11.55
2023-04-21T16:29:03.329Z,11.48
2023-04-21T16:31:30.062Z,11.48
2023-04-21T16:34:00.341Z,11.47
2023-04-21T16:36:31.449Z,11.36
2023-04-21T16:38:58.484Z,11.40
2023-04-21T16:41:25.502Z,11.39
2023-04-21T16:43:52.226Z,11.28
2023-04-21T16:46:19.156Z,11.29
2023-04-21T16:48:46.288Z,11.32
2023-04-21T16:51:13.306Z,11.34
2023-04-21T16:53:40.443Z,11.32
2023-04-21T16:56:07.326Z,11.20
2023-04-21T16:58:34.253Z,11.14
2023-04-21T17:01:01.232Z,11.05
2023-04-21T17:03:29.383Z,10.96
2023-04-21T17:05:56.377Z,10.59
2023-04-21T17:08:23.074Z,10.58
2023-04-21T17:10:49.818Z,10.49
2023-04-21T17:13:16.529Z,10.30
2023-04-21T17:15:43.289Z,10.21
2023-04-21T17:18:10.477Z,10.21
2023-04-21T17:20:37.258Z,10.16
2023-04-21T17:23:04.283Z,10.08
2023-04-21T17:25:31.489Z,10.10
2023-04-21T17:27:58.218Z,9.91
2023-04-21T17:30:25.118Z,10.22
2023-04-21T17:33:03.968Z,10.22
2023-04-21T17:35:35.884Z,9.70
2023-04-21T17:38:02.885Z,9.78
2023-04-21T17:40:29.612Z,9.85
2023-04-21T17:42:56.577Z,9.73
2023-04-21T17:45:23.368Z,9.53
2023-04-21T17:47:50.122Z,9.51
2023-04-21T17:50:16.991Z,9.52
2023-04-21T17:52:43.744Z,9.35
2023-04-21T17:55:10.548Z,9.39
2023-04-21T17:57:37.195Z,9.35
2023-04-21T18:00:07.446Z,9.35
2023-04-21T18:02:34.527Z,9.40
2023-04-21T18:05:01.731Z,9.34
2023-04-21T18:07:28.564Z,9.35
2023-04-21T18:09:55.367Z,9.27
2023-04-21T18:12:22.052Z,9.39
2023-04-21T18:14:48.886Z,9.40
2023-04-21T18:17:17.434Z,9.33
2023-04-21T18:19:44.413Z,9.38
2023-04-21T18:22:11.236Z,9.34
2023-04-21T18:24:38.341Z,9.30
2023-04-21T18:27:05.351Z,9.23
2023-04-21T18:29:32.069Z,9.25
2023-04-21T18:31:59.019Z,9.25
2023-04-21T18:34:25.992Z,9.28
2023-04-21T18:36:52.751Z,9.15
2023-04-21T18:39:19.755Z,9.24
2023-04-21T18:41:48.373Z,9.31
2023-04-21T18:44:16.326Z,9.30
2023-04-21T18:46:43.051Z,9.26
2023-04-21T18:49:09.740Z,9.08
2023-04-21T18:51:36.591Z,9.15
2023-04-21T18:54:05.030Z,9.13
2023-04-21T18:56:32.889Z,9.19
2023-04-21T18:58:59.949Z,9.11
2023-04-21T19:01:27.240Z,9.19
2023-04-21T19:03:54.133Z,9.13
2023-04-21T19:06:23.977Z,9.22
2023-04-21T19:08:53.416Z,9.17
2023-04-21T19:11:20.246Z,8.95
2023-04-21T19:13:48.237Z,9.10
2023-04-21T19:16:16.806Z,9.07
2023-04-21T19:18:43.876Z,9.12
2023-04-21T19:21:13.514Z,9.02
2023-04-21T19:23:40.746Z,9.13
2023-04-21T19:26:08.778Z,9.08
2023-04-21T19:28:36.142Z,9.22
2023-04-21T19:31:03.288Z,9.11
2023-04-21T19:33:30.148Z,9.22
2023-04-21T19:35:57.829Z,9.19
2023-04-21T19:38:24.998Z,9.20
2023-04-21T19:40:51.758Z,9.27
2023-04-21T19:43:20.358Z,9.25
2023-04-21T19:45:47.610Z,9.25
2023-04-21T19:48:14.558Z,9.02
2023-04-21T19:50:41.647Z,8.96
2023-04-21T19:53:08.480Z,9.19
2023-04-21T19:55:35.151Z,9.23
2023-04-21T19:58:01.841Z,9.19
2023-04-21T20:00:28.477Z,9.15
2023-04-21T20:02:55.332Z,9.16
2023-04-21T20:05:22.147Z,9.09
2023-04-21T20:07:49.100Z,9.26
2023-04-21T20:10:15.827Z,9.13
2023-04-21T20:12:42.610Z,8.91
2023-04-21T20:15:09.629Z,9.09
2023-04-21T20:17:37.077Z,9.21
2023-04-21T20:20:09.670Z,9.32
2023-04-21T20:22:36.477Z,9.21
2023-04-21T20:25:04.333Z,9.17
2023-04-21T20:27:31.304Z,9.26
2023-04-21T20:29:58.218Z,9.19
2023-04-21T20:32:25.050Z,8.90
2023-04-21T20:34:55.865Z,9.11
2023-04-21T20:37:23.234Z,8.91
2023-04-21T20:39:50.147Z,8.95
2023-04-21T20:42:18.991Z,9.04
2023-04-21T20:44:46.293Z,8.99
2023-04-21T20:47:13.192Z,9.00
2023-04-21T20:49:40.387Z,8.92
2023-04-21T20:52:07.242Z,8.92
2023-04-21T20:54:35.033Z,8.90
2023-04-21T20:57:02.405Z,8.82
2023-04-21T20:59:29.256Z,8.89
2023-04-21T21:01:56.098Z,8.91
2023-04-21T21:04:23.158Z,8.95
2023-04-21T21:06:50.079Z,8.79
2023-04-21T21:09:19.183Z,8.88
2023-04-21T21:11:45.933Z,8.85
2023-04-21T21:14:12.569Z,8.87
2023-04-21T21:16:39.322Z,8.65
2023-04-21T21:19:06.302Z,8.66
2023-04-21T21:21:33.028Z,8.69
2023-04-21T21:24:00.299Z,8.52
2023-04-21T21:26:27.260Z,8.60
2023-04-21T21:28:53.938Z,8.64
2023-04-21T21:31:20.791Z,8.61
2023-04-21T21:33:47.671Z,8.52
2023-04-21T21:36:14.377Z,8.46
2023-04-21T21:38:41.354Z,8.42
2023-04-21T21:41:10.374Z,8.30
2023-04-21T21:43:37.107Z,8.30
2023-04-21T21:46:05.232Z,8.28
2023-04-21T21:48:31.931Z,8.18
2023-04-21T21:50:58.606Z,8.17
2023-04-21T21:53:25.275Z,8.13
2023-04-21T21:55:52.062Z,8.01
2023-04-21T21:58:18.813Z,8.14
2023-04-21T22:00:51.737Z,8.19
2023-04-21T22:03:21.596Z,8.26
2023-04-21T22:05:48.594Z,8.16
2023-04-21T22:08:15.915Z,8.22
2023-04-21T22:10:43.315Z,8.18
2023-04-21T22:13:10.181Z,8.15
2023-04-21T22:15:37.492Z,7.89
2023-04-21T22:18:04.637Z,7.89
2023-04-21T22:20:31.578Z,7.99
2023-04-21T22:22:58.305Z,7.89
2023-04-21T22:25:27.163Z,7.98
2023-04-21T22:27:57.750Z,7.95
2023-04-21T22:30:24.849Z,7.94
2023-04-21T22:32:51.794Z,7.96
2023-04-21T22:35:18.671Z,7.79
2023-04-21T22:37:45.375Z,7.77
2023-04-21T22:40:12.268Z,7.96
2023-04-21T22:42:39.438Z,7.94
2023-04-21T22:45:07.096Z,7.94
2023-04-21T22:47:35.313Z,7.90
2023-04-21T22:50:02.118Z,7.83
2023-04-21T22:52:28.869Z,7.88
2023-04-21T22:54:55.739Z,7.87
2023-04-21T22:57:22.427Z,7.70
2023-04-21T22:59:49.212Z,7.70
2023-04-21T23:02:15.967Z,7.71
2023-04-21T23:04:42.834Z,7.54
2023-04-21T23:07:09.609Z,7.51
2023-04-21T23:09:36.565Z,7.56
2023-04-21T23:12:03.662Z,7.49
2023-04-21T23:14:30.504Z,7.25
2023-04-21T23:16:57.206Z,7.37
2023-04-21T23:19:23.893Z,7.40
2023-04-21T23:21:50.546Z,7.43
2023-04-21T23:24:17.299Z,7.32
2023-04-21T23:26:44.008Z,7.10
2023-04-21T23:29:10.767Z,7.16
2023-04-21T23:31:37.785Z,7.08
2023-04-21T23:34:04.462Z,7.04
2023-04-21T23:36:31.973Z,7.07
2023-04-21T23:38:58.921Z,7.16
2023-04-21T23:41:25.733Z,7.16
2023-04-21T23:43:52.388Z,7.23
2023-04-21T23:46:19.174Z,7.30
2023-04-21T23:48:45.817Z,7.36
2023-04-21T23:51:12.703Z,7.38
2023-04-21T23:53:39.549Z,7.41
2023-04-21T23:56:06.721Z,7.49
2023-04-21T23:58:33.530Z,7.47
